Time;durP1;ratioP1;P1;durP2;ratioP2;P2;SDS_P1;SDS_P2;PMS_P1;PMS_P2;Temp;Humidity;BMP_temperature;BMP_pressure;BME280_temperature;BME280_humidity;BME280_pressure;Samples;Min_cycle;Max_cycle;Signal;HPM_P1;HPM_P2
2022/10/02 00:00:24;;;;;;;17.50;10.70;;;9.40;99.90;;;;;;4369728;28;657922;-67
2022/10/02 00:03:14;;;;;;;18.73;12.53;;;9.40;99.90;;;;;;4350056;28;657464;-67
2022/10/02 00:06:04;;;;;;;12.20;6.70;;;9.50;99.90;;;;;;4349672;28;657838;-66
2022/10/02 00:08:53;;;;;;;15.70;10.73;;;9.50;99.90;;;;;;4356123;28;656689;-67
2022/10/02 00:11:43;;;;;;;21.10;11.43;;;9.50;99.90;;;;;;4342636;28;657584;-67
2022/10/02 00:14:35;;;;;;;16.17;10.18;;;9.50;99.90;;;;;;4341924;28;658095;-67
2022/10/02 00:17:24;;;;;;;19.87;11.03;;;9.50;99.90;;;;;;4353177;28;658492;-67
2022/10/02 00:20:12;;;;;;;18.03;11.20;;;9.50;99.90;;;;;;4344283;28;657442;-67
2022/10/02 00:23:01;;;;;;;21.20;11.03;;;9.50;99.90;;;;;;4362861;28;658485;-67
2022/10/02 00:25:51;;;;;;;17.57;10.40;;;9.60;99.90;;;;;;4346858;28;658031;-67
2022/10/02 00:28:41;;;;;;;21.57;14.80;;;9.50;99.90;;;;;;4351829;28;658374;-67
2022/10/02 00:31:34;;;;;;;23.83;15.82;;;9.40;99.90;;;;;;4350250;28;658860;-67
2022/10/02 00:34:25;;;;;;;28.00;17.47;;;9.50;99.90;;;;;;4346084;28;657842;-67
2022/10/02 00:37:15;;;;;;;29.13;17.50;;;9.50;99.90;;;;;;4343661;28;659277;-67
2022/10/02 00:40:06;;;;;;;24.23;15.93;;;9.50;99.90;;;;;;4343446;28;657694;-67
2022/10/02 00:42:58;;;;;;;21.83;12.07;;;9.50;99.90;;;;;;4348893;28;658916;-67
2022/10/02 00:46:07;;;;;;;24.57;15.37;;;9.50;99.90;;;;;;4326159;28;657842;-67
2022/10/02 00:49:23;;;;;;;25.83;12.40;;;9.50;99.90;;;;;;4349253;28;657726;-66
2022/10/02 00:52:19;;;;;;;20.67;10.70;;;9.50;99.90;;;;;;4336931;28;657491;-67
2022/10/02 00:55:37;;;;;;;22.33;12.18;;;9.60;99.90;;;;;;4332672;28;658490;-67
2022/10/02 00:58:35;;;;;;;18.07;7.57;;;9.60;99.90;;;;;;4351391;28;657334;-66
2022/10/02 01:01:23;;;;;;;18.10;10.97;;;9.60;99.90;;;;;;4355870;28;656558;-67
2022/10/02 01:04:13;;;;;;;20.63;11.97;;;9.60;99.90;;;;;;4350551;28;657601;-67
2022/10/02 01:07:00;;;;;;;20.17;11.73;;;9.60;99.90;;;;;;4358687;28;658336;-67
2022/10/02 01:09:47;;;;;;;18.52;11.35;;;9.50;99.90;;;;;;4371274;28;657406;-66
2022/10/02 01:12:34;;;;;;;16.53;11.00;;;9.60;99.90;;;;;;4379906;28;657776;-66
2022/10/02 01:15:22;;;;;;;17.27;10.07;;;9.60;99.90;;;;;;4360471;28;657808;-66
2022/10/02 01:18:10;;;;;;;20.07;11.73;;;9.60;99.90;;;;;;4377897;28;657342;-66
2022/10/02 01:21:01;;;;;;;20.08;10.63;;;9.60;99.90;;;;;;4380286;28;658015;-66
2022/10/02 01:23:50;;;;;;;19.00;11.23;;;9.60;99.90;;;;;;4356004;28;657927;-66
2022/10/02 01:26:39;;;;;;;21.43;11.30;;;9.60;99.90;;;;;;4355491;28;658213;-66
2022/10/02 01:29:26;;;;;;;14.07;8.17;;;9.60;99.90;;;;;;4357954;28;657866;-66
2022/10/02 01:32:13;;;;;;;18.20;11.27;;;9.60;99.90;;;;;;4383683;28;657938;-67
2022/10/02 01:35:00;;;;;;;9.40;6.23;;;9.60;99.90;;;;;;4362896;28;657655;-66
2022/10/02 01:37:48;;;;;;;17.90;11.37;;;9.60;99.90;;;;;;4374146;28;656232;-66
2022/10/02 01:40:36;;;;;;;17.60;9.47;;;9.70;99.90;;;;;;4357119;28;657229;-67
2022/10/02 01:43:26;;;;;;;17.13;11.10;;;9.70;99.90;;;;;;4373496;28;657567;-67
2022/10/02 01:46:26;;;;;;;21.17;10.97;;;9.70;99.90;;;;;;4346520;28;658337;-67
2022/10/02 01:49:20;;;;;;;13.10;8.87;;;9.60;99.90;;;;;;4352349;28;658222;-66
2022/10/02 01:52:13;;;;;;;22.17;11.03;;;9.70;99.90;;;;;;4324669;28;657298;-67
2022/10/02 01:55:16;;;;;;;16.70;11.17;;;9.70;99.90;;;;;;4331474;28;657498;-67
2022/10/02 01:58:15;;;;;;;15.83;10.47;;;9.70;99.90;;;;;;4354493;28;657968;-67
2022/10/02 02:01:08;;;;;;;17.27;10.70;;;9.70;99.90;;;;;;4352089;28;657434;-66
2022/10/02 02:03:59;;;;;;;15.73;10.43;;;9.80;99.90;;;;;;4336863;28;657789;-67
2022/10/02 02:06:48;;;;;;;16.90;10.80;;;9.80;99.90;;;;;;4348603;28;657847;-67
2022/10/02 02:09:38;;;;;;;17.17;11.67;;;9.80;99.90;;;;;;4350878;28;657670;-67
2022/10/02 02:12:27;;;;;;;21.77;11.77;;;9.70;99.90;;;;;;4346915;28;657398;-67
2022/10/02 02:15:18;;;;;;;18.50;12.53;;;9.70;99.90;;;;;;4364144;28;657493;-67
2022/10/02 02:18:10;;;;;;;20.67;13.53;;;9.70;99.90;;;;;;4349841;28;658411;-67
2022/10/02 02:20:59;;;;;;;17.83;10.93;;;9.70;99.90;;;;;;4343414;28;657880;-67
2022/10/02 02:23:46;;;;;;;19.17;13.20;;;9.70;99.90;;;;;;4359740;28;657571;-67
2022/10/02 02:26:33;;;;;;;23.55;15.63;;;9.70;99.90;;;;;;4372843;28;659325;-67
2022/10/02 02:29:21;;;;;;;23.90;15.60;;;9.80;99.90;;;;;;4359602;28;657321;-67
2022/10/02 02:32:09;;;;;;;24.13;15.00;;;9.80;99.90;;;;;;4382004;28;658423;-67
2022/10/02 02:35:01;;;;;;;22.33;15.40;;;9.80;99.90;;;;;;4350020;28;657439;-66
2022/10/02 02:37:49;;;;;;;21.63;14.67;;;9.80;99.90;;;;;;4338309;28;657765;-66
2022/10/02 02:40:37;;;;;;;28.10;14.60;;;9.80;99.90;;;;;;4358744;28;658005;-67
2022/10/02 02:43:27;;;;;;;19.77;11.68;;;9.80;99.90;;;;;;4370785;28;657989;-66
2022/10/02 02:46:17;;;;;;;26.07;14.57;;;9.80;99.90;;;;;;4349564;28;657672;-66
2022/10/02 02:49:06;;;;;;;19.30;14.03;;;9.80;99.90;;;;;;4342555;28;658082;-66
2022/10/02 02:51:55;;;;;;;16.53;10.40;;;9.80;99.90;;;;;;4343748;28;658891;-66
2022/10/02 02:54:43;;;;;;;13.43;8.90;;;9.80;99.90;;;;;;4348676;28;658258;-67
2022/10/02 02:57:34;;;;;;;20.63;10.68;;;9.80;99.90;;;;;;4352152;28;656461;-67
2022/10/02 03:00:21;;;;;;;16.60;9.37;;;9.80;99.90;;;;;;4345483;28;658068;-67
2022/10/02 03:03:08;;;;;;;11.33;7.13;;;9.80;99.90;;;;;;4365205;28;657623;-67
2022/10/02 03:05:59;;;;;;;14.50;7.87;;;9.90;99.90;;;;;;4352052;28;656467;-67
2022/10/02 03:08:49;;;;;;;13.67;7.43;;;9.80;99.90;;;;;;4350457;28;656366;-67
2022/10/02 03:11:42;;;;;;;15.07;7.00;;;9.80;99.90;;;;;;4354135;28;656536;-67
2022/10/02 03:14:53;;;;;;;11.40;7.03;;;9.70;99.90;;;;;;4358049;28;655993;-67
2022/10/02 03:17:48;;;;;;;13.20;6.70;;;9.70;99.90;;;;;;4335563;28;656405;-67
2022/10/02 03:20:40;;;;;;;16.70;6.43;;;9.60;99.90;;;;;;4359604;28;656573;-67
2022/10/02 03:23:30;;;;;;;7.67;5.90;;;9.50;99.90;;;;;;4359252;28;657758;-67
2022/10/02 03:26:19;;;;;;;11.85;6.68;;;9.50;99.90;;;;;;4361300;28;656157;-67
2022/10/02 03:29:09;;;;;;;15.60;6.80;;;9.50;99.90;;;;;;4356647;28;656351;-67
2022/10/02 03:31:58;;;;;;;13.00;5.73;;;9.50;99.90;;;;;;4348466;28;657614;-67
2022/10/02 03:34:45;;;;;;;6.07;4.20;;;9.50;99.90;;;;;;4353957;28;656344;-67
2022/10/02 03:37:32;;;;;;;13.03;6.20;;;9.60;99.90;;;;;;4372951;28;656124;-67
2022/10/02 03:40:22;;;;;;;9.77;6.33;;;9.70;99.90;;;;;;4372786;28;656425;-67
2022/10/02 03:43:11;;;;;;;13.53;6.63;;;9.70;99.90;;;;;;4352523;28;655699;-67
2022/10/02 03:45:59;;;;;;;9.10;6.07;;;9.70;99.90;;;;;;4343458;28;656955;-67
2022/10/02 03:48:46;;;;;;;7.60;5.77;;;9.80;99.90;;;;;;4346999;28;655352;-67
2022/10/02 03:51:33;;;;;;;16.93;6.10;;;9.80;99.90;;;;;;4380417;28;656770;-67
2022/10/02 03:54:21;;;;;;;12.98;6.10;;;9.80;99.90;;;;;;4359485;28;657306;-67
2022/10/02 03:57:11;;;;;;;14.03;5.37;;;9.80;99.90;;;;;;4380299;28;657575;-67
2022/10/02 04:00:02;;;;;;;14.40;5.57;;;9.80;99.90;;;;;;4350355;28;657507;-67
2022/10/02 04:02:51;;;;;;;13.03;6.17;;;9.80;99.90;;;;;;4352486;28;656785;-67
2022/10/02 04:05:41;;;;;;;9.27;5.90;;;9.80;99.90;;;;;;4348469;28;656776;-67
2022/10/02 04:08:30;;;;;;;8.00;4.90;;;9.80;99.90;;;;;;4352169;28;655522;-67
2022/10/02 04:11:19;;;;;;;11.03;5.10;;;9.90;99.90;;;;;;4347475;28;656544;-67
2022/10/02 04:14:07;;;;;;;11.90;5.03;;;9.80;99.90;;;;;;4346364;28;656506;-67
2022/10/02 04:17:00;;;;;;;11.73;5.80;;;9.90;99.90;;;;;;4361769;28;656894;-67
2022/10/02 04:19:48;;;;;;;10.73;6.03;;;9.90;99.90;;;;;;4332975;28;656982;-67
2022/10/02 04:22:38;;;;;;;11.83;5.27;;;9.90;99.90;;;;;;4353764;28;656733;-67
2022/10/02 04:25:27;;;;;;;10.40;6.00;;;9.90;99.90;;;;;;4350199;28;657292;-67
2022/10/02 04:28:16;;;;;;;11.47;4.80;;;9.90;99.90;;;;;;4362723;28;656726;-66
2022/10/02 04:31:08;;;;;;;7.17;4.50;;;9.90;99.90;;;;;;4352269;28;657339;-67
2022/10/02 04:33:59;;;;;;;7.67;4.50;;;9.90;99.90;;;;;;4358921;28;655480;-67
2022/10/02 04:37:04;;;;;;;8.27;4.83;;;9.90;99.90;;;;;;4355558;28;655350;-67
2022/10/02 04:39:58;;;;;;;7.57;4.40;;;9.90;99.90;;;;;;4331031;28;656206;-68
2022/10/02 04:42:52;;;;;;;11.33;4.20;;;10.00;99.90;;;;;;4331374;28;655727;-68
2022/10/02 04:45:51;;;;;;;5.57;4.43;;;10.00;99.90;;;;;;4350272;28;657654;-67
2022/10/02 04:49:00;;;;;;;5.47;3.17;;;9.90;99.90;;;;;;4345861;28;656784;-67
2022/10/02 04:51:59;;;;;;;7.53;4.20;;;10.00;99.90;;;;;;4344224;28;655183;-67
2022/10/02 04:54:57;;;;;;;9.27;3.87;;;10.00;99.90;;;;;;4327446;28;658444;-67
2022/10/02 04:58:17;;;;;;;9.33;4.20;;;10.00;99.90;;;;;;4352221;28;657056;-67
2022/10/02 05:01:09;;;;;;;10.07;5.20;;;10.10;99.90;;;;;;4292149;28;656546;-67
2022/10/02 05:04:09;;;;;;;11.30;4.87;;;10.10;99.90;;;;;;4325919;28;657846;-67
2022/10/02 05:07:06;;;;;;;9.90;5.43;;;10.10;99.90;;;;;;4347253;28;657643;-67
2022/10/02 05:09:57;;;;;;;12.90;5.67;;;10.20;99.90;;;;;;4352070;28;657052;-67
2022/10/02 05:12:50;;;;;;;10.83;4.90;;;10.10;99.90;;;;;;4356795;28;657876;-67
2022/10/02 05:15:53;;;;;;;9.90;6.07;;;10.20;99.90;;;;;;4339127;28;658043;-67
2022/10/02 05:18:51;;;;;;;7.00;4.33;;;10.20;99.90;;;;;;4342849;28;656917;-67
2022/10/02 05:21:48;;;;;;;10.93;5.17;;;10.20;99.90;;;;;;4350736;28;657308;-67
2022/10/02 05:24:45;;;;;;;8.90;5.90;;;10.20;99.90;;;;;;4332199;28;657840;-67
2022/10/02 05:27:46;;;;;;;14.50;7.10;;;10.20;99.90;;;;;;4358407;28;656934;-67
2022/10/02 05:30:36;;;;;;;11.00;5.60;;;10.20;99.90;;;;;;4356119;28;657804;-67
2022/10/02 05:33:31;;;;;;;9.60;6.23;;;10.20;99.90;;;;;;4344640;28;657828;-67
2022/10/02 05:36:35;;;;;;;16.30;7.03;;;10.20;99.90;;;;;;4327707;28;656666;-67
2022/10/02 05:39:27;;;;;;;14.30;7.07;;;10.10;99.90;;;;;;4311891;28;658707;-68
2022/10/02 05:42:16;;;;;;;14.40;6.63;;;10.20;99.90;;;;;;4331084;28;657680;-67
2022/10/02 05:45:04;;;;;;;11.53;6.37;;;10.20;99.90;;;;;;4331874;28;657722;-67
2022/10/02 05:47:52;;;;;;;10.97;5.43;;;10.20;99.90;;;;;;4330634;28;658611;-67
2022/10/02 05:50:39;;;;;;;8.80;4.47;;;10.30;99.90;;;;;;4358389;28;657788;-66
2022/10/02 05:53:31;;;;;;;5.03;4.20;;;10.30;99.90;;;;;;4342285;28;656681;-67
2022/10/02 05:56:22;;;;;;;7.27;4.00;;;10.20;99.90;;;;;;4327871;28;656587;-67
2022/10/02 05:59:12;;;;;;;11.33;4.20;;;10.30;99.90;;;;;;4333468;28;656717;-67
2022/10/02 06:02:02;;;;;;;6.87;3.60;;;10.40;99.90;;;;;;4334231;28;658430;-67
2022/10/02 06:04:54;;;;;;;7.63;3.50;;;10.50;99.90;;;;;;4333159;28;656554;-67
2022/10/02 06:07:41;;;;;;;7.23;3.67;;;10.50;99.90;;;;;;4338254;28;657105;-67
2022/10/02 06:10:30;;;;;;;11.50;4.27;;;10.40;99.90;;;;;;4361451;28;656891;-67
2022/10/02 06:13:22;;;;;;;7.90;3.63;;;10.50;99.90;;;;;;4322400;28;658517;-67
2022/10/02 06:16:12;;;;;;;9.97;3.73;;;10.50;99.90;;;;;;4339853;28;656499;-67
2022/10/02 06:19:02;;;;;;;8.35;4.15;;;10.70;99.90;;;;;;4362419;28;656583;-67
2022/10/02 06:21:50;;;;;;;8.77;3.93;;;10.70;99.90;;;;;;4335487;28;657112;-67
2022/10/02 06:24:39;;;;;;;12.13;5.17;;;10.70;99.90;;;;;;4328302;28;656941;-67
2022/10/02 06:27:30;;;;;;;9.07;3.27;;;10.60;99.90;;;;;;4334916;28;659223;-67
2022/10/02 06:30:19;;;;;;;11.53;4.60;;;10.70;99.90;;;;;;4337890;28;657047;-67
2022/10/02 06:33:09;;;;;;;11.10;3.77;;;10.80;99.90;;;;;;4332746;28;657799;-67
2022/10/02 06:36:32;;;;;;;12.97;3.57;;;10.90;99.90;;;;;;4353289;28;657168;-66
2022/10/02 06:39:33;;;;;;;10.03;3.60;;;10.90;99.90;;;;;;4341016;28;657869;-67
2022/10/02 06:42:26;;;;;;;9.33;3.27;;;10.80;99.90;;;;;;4342337;28;657805;-67
2022/10/02 06:45:20;;;;;;;8.87;3.43;;;10.70;99.90;;;;;;4349510;28;656692;-67
2022/10/02 06:48:23;;;;;;;6.30;1.93;;;10.90;99.90;;;;;;4321319;28;656764;-67
2022/10/02 06:51:13;;;;;;;10.20;3.33;;;10.90;99.90;;;;;;4332267;28;657315;-67
2022/10/02 06:54:18;;;;;;;7.33;3.00;;;11.00;99.90;;;;;;4357320;28;657556;-67
2022/10/02 06:57:15;;;;;;;6.30;3.07;;;11.00;99.90;;;;;;4339411;28;656802;-67
2022/10/02 07:00:11;;;;;;;8.23;2.53;;;11.00;99.90;;;;;;4345373;28;656667;-67
2022/10/02 07:03:18;;;;;;;9.20;2.80;;;11.00;99.90;;;;;;4348471;28;657467;-67
2022/10/02 07:06:21;;;;;;;5.97;2.77;;;11.10;99.90;;;;;;4331772;28;656769;-67
2022/10/02 07:09:57;;;;;;;11.30;3.27;;;11.00;99.90;;;;;;4347634;28;656764;-67
2022/10/02 07:12:57;;;;;;;5.83;2.90;;;11.00;99.90;;;;;;4323027;28;657835;-67
2022/10/02 07:16:10;;;;;;;9.20;3.27;;;11.20;99.90;;;;;;4348671;28;656604;-67
2022/10/02 07:19:11;;;;;;;9.90;2.80;;;11.10;99.90;;;;;;4327979;28;658023;-67
2022/10/02 07:22:02;;;;;;;8.20;2.87;;;11.00;99.90;;;;;;4349969;28;656795;-67
2022/10/02 07:25:09;;;;;;;4.83;2.30;;;11.00;99.90;;;;;;4343199;28;656687;-67
2022/10/02 07:27:58;;;;;;;13.10;2.53;;;11.20;99.90;;;;;;4353293;28;660732;-67
2022/10/02 07:30:51;;;;;;;6.07;2.70;;;11.30;99.90;;;;;;4351277;28;657853;-67
2022/10/02 07:33:46;;;;;;;3.97;1.67;;;11.20;99.90;;;;;;4350616;28;657203;-67
2022/10/02 07:36:41;;;;;;;4.53;2.30;;;11.40;99.90;;;;;;4349807;28;656859;-67
2022/10/02 07:39:34;;;;;;;9.63;3.23;;;11.70;99.90;;;;;;4351998;28;657009;-67
2022/10/02 07:42:46;;;;;;;12.10;3.17;;;11.90;99.90;;;;;;4328896;28;657420;-67
2022/10/02 07:45:36;;;;;;;11.75;3.00;;;11.90;99.90;;;;;;4347917;28;658094;-67
2022/10/02 07:48:33;;;;;;;8.17;2.23;;;12.00;99.90;;;;;;4342458;28;657695;-67
2022/10/02 07:51:49;;;;;;;7.37;2.83;;;12.20;99.90;;;;;;4340287;28;656472;-67
2022/10/02 07:54:59;;;;;;;7.80;1.97;;;12.10;99.90;;;;;;4322439;28;658044;-67
2022/10/02 07:57:52;;;;;;;6.03;2.40;;;12.10;99.90;;;;;;4352703;28;656446;-67
2022/10/02 08:00:41;;;;;;;6.73;2.13;;;12.20;99.90;;;;;;4347940;28;657050;-67
2022/10/02 08:03:30;;;;;;;7.63;2.17;;;12.10;99.90;;;;;;4349048;28;657235;-67
2022/10/02 08:06:17;;;;;;;6.27;2.00;;;12.00;99.90;;;;;;4349512;28;657478;-67
2022/10/02 08:09:07;;;;;;;7.07;2.00;;;12.00;99.90;;;;;;4373705;28;656567;-67
2022/10/02 08:11:57;;;;;;;6.50;1.87;;;11.80;99.90;;;;;;4339234;28;656143;-67
2022/10/02 08:14:44;;;;;;;7.50;2.30;;;11.80;99.90;;;;;;4345359;28;656658;-67
2022/10/02 08:17:35;;;;;;;7.37;2.10;;;11.80;99.90;;;;;;4349597;28;656515;-68
2022/10/02 08:20:29;;;;;;;7.30;2.73;;;11.70;99.90;;;;;;4358892;28;657526;-67
2022/10/02 08:23:21;;;;;;;8.83;2.57;;;11.80;99.90;;;;;;4353559;28;657309;-67
2022/10/02 08:26:11;;;;;;;6.83;2.43;;;11.80;99.90;;;;;;4348042;28;656793;-68
2022/10/02 08:29:04;;;;;;;5.50;2.53;;;11.90;99.90;;;;;;4348513;28;657700;-67
2022/10/02 08:31:51;;;;;;;7.87;2.33;;;11.80;99.90;;;;;;4328394;28;656714;-67
2022/10/02 08:34:39;;;;;;;5.30;2.50;;;11.90;99.90;;;;;;4372686;28;657159;-67
2022/10/02 08:37:30;;;;;;;7.80;2.50;;;12.00;99.90;;;;;;4349895;28;656820;-67
2022/10/02 08:40:53;;;;;;;4.82;1.75;;;12.00;99.90;;;;;;4354423;28;657130;-67
2022/10/02 08:44:07;;;;;;;10.87;2.97;;;12.30;99.90;;;;;;4265919;29;656677;-67
2022/10/02 08:47:28;;;;;;;12.80;2.50;;;12.80;99.90;;;;;;4370570;28;657710;-67
2022/10/02 08:51:04;;;;;;;6.77;2.30;;;12.80;99.90;;;;;;4327522;28;658020;-67
2022/10/02 08:54:20;;;;;;;8.10;2.23;;;12.50;99.90;;;;;;4313057;28;657218;-68
2022/10/02 08:57:15;;;;;;;6.80;2.10;;;12.50;99.90;;;;;;4329644;28;656899;-67
2022/10/02 09:00:09;;;;;;;7.40;2.00;;;12.40;99.90;;;;;;4326531;28;657001;-67
2022/10/02 09:03:44;;;;;;;8.57;2.17;;;12.30;99.90;;;;;;4351287;28;656544;-67
2022/10/02 09:07:17;;;;;;;4.73;1.90;;;12.50;99.90;;;;;;4321520;28;657379;-67
2022/10/02 09:10:47;;;;;;;6.80;2.10;;;12.60;99.90;;;;;;4318543;28;656599;-67
2022/10/02 09:13:47;;;;;;;5.97;1.80;;;13.00;99.90;;;;;;4313820;28;656825;-67
2022/10/02 09:16:39;;;;;;;8.73;2.10;;;12.70;99.90;;;;;;4352563;28;657428;-67
2022/10/02 09:19:40;;;;;;;6.93;1.83;;;12.80;99.90;;;;;;4330583;28;657429;-67
2022/10/02 09:22:46;;;;;;;6.03;2.40;;;12.60;99.90;;;;;;4329847;28;656765;-67
2022/10/02 09:25:36;;;;;;;12.53;2.60;;;12.40;99.90;;;;;;4350086;28;656899;-67
2022/10/02 09:28:42;;;;;;;5.60;1.70;;;12.40;99.90;;;;;;4350012;28;659090;-67
2022/10/02 09:31:56;;;;;;;6.93;1.87;;;12.60;99.90;;;;;;4370716;28;656254;-67
2022/10/02 09:35:08;;;;;;;5.30;1.90;;;12.90;99.90;;;;;;4346523;28;656988;-67
2022/10/02 09:38:07;;;;;;;8.83;1.67;;;12.80;99.90;;;;;;4338094;28;656369;-67
2022/10/02 09:41:22;;;;;;;8.65;1.80;;;12.80;99.90;;;;;;4346381;28;657231;-67
2022/10/02 09:44:57;;;;;;;6.03;1.60;;;13.50;99.90;;;;;;4350473;28;656342;-68
2022/10/02 09:48:32;;;;;;;9.13;1.43;;;13.50;99.90;;;;;;4316826;28;656823;-67
2022/10/02 09:51:50;;;;;;;4.00;1.43;;;14.40;99.90;;;;;;4352752;28;656866;-67
2022/10/02 09:55:10;;;;;;;7.07;1.70;;;14.90;99.90;;;;;;4351739;28;656617;-68
2022/10/02 09:58:23;;;;;;;6.20;1.20;;;15.30;99.90;;;;;;4350242;28;657431;-67
2022/10/02 10:01:38;;;;;;;10.15;1.40;;;15.00;99.90;;;;;;4326102;28;656304;-68
2022/10/02 10:05:02;;;;;;;10.13;1.60;;;14.30;99.90;;;;;;4325054;28;657995;-68
2022/10/02 10:08:25;;;;;;;10.53;1.63;;;14.50;99.90;;;;;;4351169;28;657709;-67
2022/10/02 10:11:29;;;;;;;7.10;1.60;;;15.10;99.90;;;;;;4328396;28;657610;-68
2022/10/02 10:15:01;;;;;;;6.83;1.70;;;15.30;99.90;;;;;;4332501;28;657066;-68
2022/10/02 10:18:10;;;;;;;9.03;1.50;;;15.40;99.90;;;;;;4347489;28;656730;-68
2022/10/02 10:21:24;;;;;;;5.57;1.30;;;14.80;99.90;;;;;;4352277;28;656963;-68
2022/10/02 10:24:31;;;;;;;8.13;1.63;;;14.10;99.90;;;;;;4348783;28;656269;-68
2022/10/02 10:27:55;;;;;;;6.30;2.03;;;13.80;99.90;;;;;;4350514;28;658282;-67
2022/10/02 10:30:54;;;;;;;7.73;1.30;;;13.90;99.90;;;;;;4349287;28;656828;-68
2022/10/02 10:34:02;;;;;;;9.20;2.17;;;13.70;99.90;;;;;;4354771;28;656367;-68
2022/10/02 10:40:20;;;;;;;8.53;1.70;;;13.70;99.90;;;;;;4339133;28;656811;-68
2022/10/02 10:43:35;;;;;;;12.67;2.83;;;13.60;99.90;;;;;;4313874;28;656994;-68
2022/10/02 10:46:58;;;;;;;12.37;2.90;;;13.70;99.90;;;;;;4311742;28;658483;-68
2022/10/02 10:50:10;;;;;;;3.63;1.20;;;13.70;99.90;;;;;;4313817;28;658892;-68
2022/10/02 10:53:13;;;;;;;6.97;2.90;;;13.60;99.90;;;;;;4311184;28;657346;-68
2022/10/02 10:56:36;;;;;;;8.57;2.20;;;13.70;99.90;;;;;;4321306;28;656753;-68
2022/10/02 10:59:47;;;;;;;11.70;3.20;;;13.80;99.90;;;;;;4333417;28;656685;-67
2022/10/02 11:03:01;;;;;;;12.20;2.90;;;13.80;99.90;;;;;;4332657;28;659275;-68
2022/10/02 11:06:14;;;;;;;8.23;1.40;;;13.60;99.90;;;;;;4328921;28;657804;-67
2022/10/02 11:09:25;;;;;;;11.43;3.80;;;13.70;99.90;;;;;;4311095;28;656658;-68
2022/10/02 11:12:43;;;;;;;8.40;2.20;;;13.90;99.90;;;;;;4310625;28;658233;-67
2022/10/02 11:15:55;;;;;;;10.90;2.30;;;13.70;99.90;;;;;;4294427;28;656456;-67
2022/10/02 11:19:01;;;;;;;6.33;2.10;;;14.10;99.90;;;;;;4312412;28;658302;-67
2022/10/02 11:22:06;;;;;;;10.60;2.73;;;14.20;99.90;;;;;;4331612;28;656676;-67
2022/10/02 11:25:02;;;;;;;8.20;1.80;;;14.00;99.90;;;;;;4333063;28;657336;-68
2022/10/02 11:28:11;;;;;;;4.93;1.40;;;14.20;99.90;;;;;;4336647;28;656911;-67
2022/10/02 11:31:11;;;;;;;7.53;2.40;;;14.00;99.90;;;;;;4324906;28;656686;-68
2022/10/02 11:34:34;;;;;;;10.20;3.30;;;14.20;99.90;;;;;;4331334;28;658707;-68
2022/10/02 11:37:36;;;;;;;8.57;2.57;;;14.40;99.90;;;;;;4349523;28;657398;-68
2022/10/02 11:40:33;;;;;;;8.70;1.80;;;14.30;99.90;;;;;;4346454;28;656700;-68
2022/10/02 11:43:36;;;;;;;6.70;1.90;;;14.20;99.90;;;;;;4326448;28;657441;-67
2022/10/02 11:46:37;;;;;;;9.50;2.63;;;13.80;99.90;;;;;;4346122;28;656483;-67
2022/10/02 11:49:50;;;;;;;6.47;2.43;;;13.30;99.90;;;;;;4352602;28;656189;-67
2022/10/02 11:52:51;;;;;;;7.60;1.83;;;12.70;99.90;;;;;;4353223;28;656955;-67
2022/10/02 11:55:48;;;;;;;9.07;2.23;;;12.60;99.90;;;;;;4347624;28;656623;-67
2022/10/02 11:58:44;;;;;;;6.53;1.90;;;12.60;99.90;;;;;;4333401;28;656505;-68
2022/10/02 12:01:34;;;;;;;5.10;2.00;;;13.00;1.00;;;;;;4326937;28;657625;-68
2022/10/02 12:04:29;;;;;;;6.53;1.93;;;14.30;99.90;;;;;;4350002;28;656181;-68
2022/10/02 12:07:23;;;;;;;7.53;1.90;;;15.20;91.90;;;;;;4353630;28;656576;-69
2022/10/02 12:10:20;;;;;;;4.17;1.57;;;15.80;99.90;;;;;;4324145;28;656872;-68
2022/10/02 12:13:28;;;;;;;7.38;2.38;;;16.30;99.90;;;;;;4322988;28;656790;-68
2022/10/02 12:16:20;;;;;;;9.27;2.60;;;15.50;99.90;;;;;;4363645;28;656945;-69
2022/10/02 12:19:19;;;;;;;7.40;1.90;;;15.00;99.90;;;;;;4347477;28;657012;-68
2022/10/02 12:28:31;;;;;;;6.67;2.10;;;15.30;99.90;;;;;;4347271;28;656670;-69
2022/10/02 12:31:20;;;;;;;7.00;2.00;;;16.10;99.90;;;;;;4345791;28;657307;-68
2022/10/02 12:34:27;;;;;;;6.37;2.23;;;15.80;99.90;;;;;;4346471;28;657326;-69
2022/10/02 12:37:18;;;;;;;11.23;2.70;;;15.50;99.90;;;;;;4347655;28;656736;-69
2022/10/02 12:40:12;;;;;;;11.30;2.93;;;15.90;99.90;;;;;;4333367;28;658997;-69
2022/10/02 12:43:16;;;;;;;7.10;2.43;;;16.10;99.90;;;;;;4342745;28;657639;-70
2022/10/02 12:46:11;;;;;;;7.53;1.93;;;16.40;78.00;;;;;;4347833;28;657369;-69
2022/10/02 12:49:08;;;;;;;5.17;1.27;;;16.80;5.40;;;;;;4347009;28;656547;-69
2022/10/02 12:52:15;;;;;;;5.13;1.17;;;16.70;1.00;;;;;;4330305;28;655376;-69
2022/10/02 12:55:31;;;;;;;3.33;1.50;;;16.90;1.00;;;;;;4331645;28;656655;-69
2022/10/02 12:58:21;;;;;;;5.07;1.27;;;16.70;1.00;;;;;;4330445;28;655408;-68
2022/10/02 13:01:21;;;;;;;5.07;1.50;;;16.30;1.00;;;;;;4347166;28;655971;-69
2022/10/02 13:04:52;;;;;;;4.70;1.37;;;16.70;1.00;;;;;;4348579;28;655356;-69
2022/10/02 13:08:08;;;;;;;3.30;1.50;;;16.70;1.00;;;;;;4284881;29;656111;-69
2022/10/02 13:11:00;;;;;;;4.73;1.70;;;17.00;1.00;;;;;;4335019;28;656275;-68
2022/10/02 13:13:56;;;;;;;3.50;1.20;;;16.80;1.00;;;;;;4351567;28;655939;-69
2022/10/02 13:17:04;;;;;;;14.13;2.43;;;17.10;1.00;;;;;;4347812;28;656015;-69
2022/10/02 13:19:59;;;;;;;6.10;2.10;;;17.30;1.00;;;;;;4355643;28;656641;-69
2022/10/02 13:22:50;;;;;;;6.90;2.07;;;17.60;1.00;;;;;;4325064;28;655562;-68
2022/10/02 13:25:44;;;;;;;7.33;2.00;;;16.70;1.00;;;;;;4353506;28;656193;-68
2022/10/02 13:28:41;;;;;;;7.80;2.20;;;16.00;1.00;;;;;;4358575;28;655723;-68
2022/10/02 13:31:36;;;;;;;4.10;1.40;;;15.50;1.00;;;;;;4353223;28;655174;-68
2022/10/02 13:34:34;;;;;;;3.17;1.33;;;15.40;1.00;;;;;;4353724;28;655679;-68
2022/10/02 13:37:25;;;;;;;4.73;1.70;;;15.10;1.00;;;;;;4324257;28;657301;-68
2022/10/02 13:40:22;;;;;;;6.13;1.07;;;14.80;1.00;;;;;;4354304;28;656324;-68
2022/10/02 13:43:39;;;;;;;10.73;2.00;;;14.60;1.00;;;;;;4350108;28;655692;-69
2022/10/02 13:46:37;;;;;;;10.37;2.07;;;14.40;1.00;;;;;;4325794;28;657177;-69
2022/10/02 13:49:31;;;;;;;4.33;1.70;;;14.10;1.00;;;;;;4350501;28;657176;-68
2022/10/02 13:52:20;;;;;;;5.40;1.73;;;13.90;1.00;;;;;;4352821;28;655904;-69
2022/10/02 13:55:20;;;;;;;5.93;1.67;;;13.50;96.00;;;;;;4347879;28;656476;-69
2022/10/02 13:58:26;;;;;;;7.37;1.93;;;13.30;99.90;;;;;;4330945;28;657246;-68
2022/10/02 14:01:23;;;;;;;8.25;2.15;;;13.10;99.90;;;;;;4350555;28;656525;-68
2022/10/02 14:04:26;;;;;;;8.23;2.10;;;13.00;1.00;;;;;;4323035;28;656416;-68
2022/10/02 14:07:24;;;;;;;8.30;1.90;;;12.80;99.90;;;;;;4351734;28;655903;-68
2022/10/02 14:10:18;;;;;;;5.83;2.23;;;12.80;99.90;;;;;;4352004;28;656470;-69
2022/10/02 14:13:14;;;;;;;9.57;4.40;;;12.60;99.90;;;;;;4336762;28;657943;-69
2022/10/02 14:16:07;;;;;;;7.07;3.30;;;12.40;99.90;;;;;;4332711;28;656840;-69
2022/10/02 14:19:29;;;;;;;8.90;3.23;;;12.80;99.90;;;;;;4357089;28;656745;-69
2022/10/02 14:22:34;;;;;;;6.80;2.07;;;13.10;99.90;;;;;;4335176;28;657574;-69
2022/10/02 14:25:35;;;;;;;5.30;2.10;;;13.00;99.90;;;;;;4347593;28;656634;-69
2022/10/02 14:28:38;;;;;;;6.30;2.60;;;12.90;99.90;;;;;;4360706;28;656364;-69
2022/10/02 14:31:42;;;;;;;8.27;2.50;;;12.50;99.90;;;;;;4337305;28;656618;-69
2022/10/02 14:34:58;;;;;;;7.50;2.10;;;12.50;99.90;;;;;;4356215;28;656348;-69
2022/10/02 14:38:12;;;;;;;5.05;2.13;;;12.60;99.90;;;;;;4331197;28;656875;-69
2022/10/02 14:41:06;;;;;;;4.80;2.57;;;12.80;99.90;;;;;;4370513;28;656259;-69
2022/10/02 14:44:12;;;;;;;6.37;2.47;;;12.80;99.90;;;;;;4349768;28;657194;-69
2022/10/02 14:47:11;;;;;;;7.13;3.77;;;12.70;99.90;;;;;;4339697;28;657068;-69
2022/10/02 14:50:13;;;;;;;6.03;2.63;;;12.70;99.90;;;;;;4348016;28;657301;-69
2022/10/02 14:53:17;;;;;;;4.83;2.40;;;12.50;99.90;;;;;;4334949;28;657268;-69
2022/10/02 14:56:22;;;;;;;5.40;2.80;;;12.40;99.90;;;;;;4347473;28;656329;-69
2022/10/02 14:59:36;;;;;;;13.07;2.43;;;12.50;99.90;;;;;;4350479;28;656765;-69
2022/10/02 15:03:02;;;;;;;7.60;3.00;;;12.70;99.90;;;;;;4349538;28;657851;-69
2022/10/02 15:06:20;;;;;;;5.80;2.40;;;12.70;99.90;;;;;;4333440;28;656695;-69
2022/10/02 15:09:13;;;;;;;8.40;3.13;;;12.60;99.90;;;;;;4332907;28;657424;-69
2022/10/02 15:12:07;;;;;;;3.50;2.20;;;12.60;99.90;;;;;;4329813;28;656627;-68
2022/10/02 15:15:06;;;;;;;8.70;2.97;;;12.50;99.90;;;;;;4343834;28;656831;-69
2022/10/02 15:18:10;;;;;;;7.63;3.03;;;12.40;99.90;;;;;;4354719;28;656541;-68
2022/10/02 15:20:59;;;;;;;7.40;2.80;;;12.30;99.90;;;;;;4352871;28;657640;-68
2022/10/02 15:23:49;;;;;;;7.53;3.07;;;12.10;99.90;;;;;;4347977;28;656193;-68